createdAt,value
2022-09-11T00:02:51.216Z,15.18
2022-09-11T00:09:53.140Z,15.20
2022-09-11T00:16:55.197Z,19.40
2022-09-11T00:23:57.902Z,15.48
2022-09-11T00:31:07.730Z,15.85
2022-09-11T00:38:13.097Z,11.70
2022-09-11T00:45:25.759Z,15.70
2022-09-11T00:52:31.402Z,18.73
2022-09-11T00:59:33.899Z,13.48
2022-09-11T01:06:36.078Z,13.45
2022-09-11T01:13:53.339Z,16.80
2022-09-11T01:21:20.205Z,12.35
2022-09-11T01:28:26.230Z,12.93
2022-09-11T01:35:32.158Z,15.20
2022-09-11T01:42:35.413Z,13.75
2022-09-11T01:49:48.519Z,15.63
2022-09-11T01:56:53.818Z,11.90
2022-09-11T02:04:08.021Z,16.42
2022-09-11T02:11:12.764Z,13.30
2022-09-11T02:18:29.844Z,15.57
2022-09-11T02:25:32.005Z,17.67
2022-09-11T02:32:39.459Z,15.43
2022-09-11T02:39:47.220Z,14.55
2022-09-11T02:46:52.253Z,15.82
2022-09-11T02:54:20.917Z,13.88
2022-09-11T03:01:23.816Z,13.50
2022-09-11T03:08:25.979Z,16.50
2022-09-11T03:15:27.978Z,12.88
2022-09-11T03:22:30.156Z,12.70
2022-09-11T03:29:32.347Z,16.35
2022-09-11T03:36:34.706Z,24.75
2022-09-11T03:43:36.744Z,19.60
2022-09-11T03:50:38.606Z,12.07
2022-09-11T03:57:40.840Z,15.00
2022-09-11T04:04:42.938Z,16.15
2022-09-11T04:11:44.818Z,14.52
2022-09-11T04:18:47.755Z,18.33
2022-09-11T04:25:50.010Z,14.40
2022-09-11T04:32:51.926Z,14.50
2022-09-11T04:39:54.414Z,16.05
2022-09-11T04:46:56.651Z,14.02
2022-09-11T04:53:59.595Z,9.73
2022-09-11T05:01:01.811Z,8.52
2022-09-11T05:08:04.441Z,9.55
2022-09-11T05:15:07.069Z,14.43
2022-09-11T05:22:09.659Z,10.23
2022-09-11T05:29:16.158Z,10.85
2022-09-11T05:36:18.452Z,10.68
2022-09-11T05:43:20.617Z,14.40
2022-09-11T05:50:22.781Z,10.50
2022-09-11T05:57:24.897Z,13.02
2022-09-11T06:04:28.514Z,12.50
2022-09-11T06:11:31.481Z,10.80
2022-09-11T06:18:33.680Z,9.48
2022-09-11T06:25:36.371Z,16.60
2022-09-11T06:32:38.364Z,7.68
2022-09-11T06:39:40.432Z,9.38
2022-09-11T06:46:57.889Z,9.85
2022-09-11T06:54:02.572Z,11.95
2022-09-11T07:01:07.043Z,7.75
2022-09-11T07:08:09.006Z,9.98
2022-09-11T07:15:11.429Z,8.73
2022-09-11T07:22:14.930Z,11.30
2022-09-11T07:29:18.254Z,8.55
2022-09-11T07:36:22.229Z,8.23
2022-09-11T07:43:24.247Z,9.20
2022-09-11T07:50:26.293Z,10.50
2022-09-11T07:57:30.772Z,7.68
2022-09-11T08:04:32.807Z,11.82
2022-09-11T08:11:43.438Z,7.50
2022-09-11T08:18:46.135Z,8.77
2022-09-11T08:25:48.070Z,7.82
2022-09-11T08:32:49.979Z,6.07
2022-09-11T08:39:52.529Z,10.00
2022-09-11T08:47:01.508Z,9.93
2022-09-11T08:54:05.058Z,6.60
2022-09-11T09:01:23.301Z,6.75
2022-09-11T09:08:38.258Z,6.30
2022-09-11T09:16:11.015Z,5.88
2022-09-11T09:23:31.288Z,5.85
2022-09-11T09:30:42.205Z,6.95
2022-09-11T09:37:44.585Z,7.72
2022-09-11T09:45:07.552Z,8.15
2022-09-11T09:52:21.343Z,7.00
2022-09-11T09:59:30.432Z,7.68
2022-09-11T10:06:32.655Z,6.80
2022-09-11T10:13:39.483Z,8.93
2022-09-11T10:20:41.669Z,7.25
2022-09-11T10:27:45.849Z,6.88
2022-09-11T10:34:49.090Z,6.60
2022-09-11T10:41:54.831Z,8.98
2022-09-11T10:49:18.435Z,12.23
2022-09-11T10:56:20.488Z,6.90
2022-09-11T11:03:27.390Z,7.38
2022-09-11T11:10:41.271Z,12.73
2022-09-11T11:18:24.261Z,11.10
2022-09-11T11:25:45.951Z,9.70
2022-09-11T11:33:18.094Z,10.57
2022-09-11T11:40:44.425Z,5.10
2022-09-11T11:55:31.807Z,5.57
2022-09-11T12:03:00.453Z,8.70
2022-09-11T12:10:07.850Z,7.10
2022-09-11T12:17:28.104Z,6.68
2022-09-11T12:25:01.065Z,7.78
2022-09-11T12:32:31.029Z,5.65
2022-09-11T12:47:11.765Z,8.38
2022-09-11T12:54:20.270Z,5.32
2022-09-11T13:01:31.230Z,5.60
2022-09-11T13:09:00.256Z,6.22
2022-09-11T13:16:19.428Z,6.70
2022-09-11T13:23:21.431Z,6.33
2022-09-11T13:30:24.868Z,5.78
2022-09-11T13:37:34.477Z,4.63
2022-09-11T13:44:51.002Z,4.95
2022-09-11T13:51:53.084Z,5.68
2022-09-11T13:58:55.483Z,7.25
2022-09-11T14:06:02.331Z,6.30
2022-09-11T14:13:35.503Z,5.43
2022-09-11T14:20:41.661Z,7.07
2022-09-11T14:27:43.907Z,7.97
2022-09-11T14:34:48.140Z,6.32
2022-09-11T14:41:51.702Z,13.32
2022-09-11T14:48:55.707Z,6.38
2022-09-11T14:56:00.986Z,12.82
2022-09-11T15:03:05.694Z,8.02
2022-09-11T15:10:09.366Z,5.22
2022-09-11T15:17:15.848Z,7.85
2022-09-11T15:24:19.495Z,11.82
2022-09-11T15:31:26.337Z,7.60
2022-09-11T15:38:30.679Z,9.00
2022-09-11T15:45:34.277Z,8.60
2022-09-11T15:52:41.690Z,5.63
2022-09-11T15:59:44.126Z,4.97
2022-09-11T16:06:47.993Z,7.53
2022-09-11T16:13:56.306Z,10.70
2022-09-11T16:20:59.156Z,7.50
2022-09-11T16:28:01.280Z,9.77
2022-09-11T16:35:03.757Z,13.55
2022-09-11T16:42:05.771Z,8.88
2022-09-11T16:49:07.785Z,10.90
2022-09-11T16:56:12.267Z,9.82
2022-09-11T17:03:14.628Z,7.38
2022-09-11T17:10:16.559Z,7.55
2022-09-11T17:17:28.782Z,5.70
2022-09-11T17:24:43.833Z,8.32
2022-09-11T17:32:16.827Z,8.77
2022-09-11T17:39:29.523Z,11.52
2022-09-11T17:46:43.715Z,7.82
2022-09-11T17:54:07.807Z,7.40
2022-09-11T18:01:20.009Z,6.15
2022-09-11T18:08:41.179Z,11.95
2022-09-11T18:15:48.905Z,7.57
2022-09-11T18:22:57.205Z,9.88
2022-09-11T18:30:05.112Z,8.10
2022-09-11T18:37:16.966Z,8.65
2022-09-11T18:44:44.005Z,6.50
2022-09-11T18:51:51.288Z,8.50
2022-09-11T18:58:54.124Z,7.18
2022-09-11T19:06:05.083Z,12.80
2022-09-11T19:13:07.315Z,8.80
2022-09-11T19:20:13.105Z,8.70
2022-09-11T19:27:15.654Z,7.50
2022-09-11T19:34:17.872Z,11.30
2022-09-11T19:41:22.299Z,8.70
2022-09-11T19:48:24.292Z,8.45
2022-09-11T19:55:26.631Z,7.22
2022-09-11T20:02:28.775Z,5.00
2022-09-11T20:09:32.370Z,8.90
2022-09-11T20:16:34.882Z,6.68
2022-09-11T20:23:37.176Z,7.40
2022-09-11T20:30:40.547Z,5.72
2022-09-11T20:37:42.749Z,9.50
2022-09-11T20:44:45.665Z,7.38
2022-09-11T20:51:48.180Z,7.10
2022-09-11T20:58:50.339Z,8.85
2022-09-11T21:05:52.449Z,8.68
2022-09-11T21:12:56.823Z,9.32
2022-09-11T21:19:59.251Z,7.32
2022-09-11T21:27:01.200Z,9.18
2022-09-11T21:34:03.732Z,8.98
2022-09-11T21:41:07.862Z,10.52
2022-09-11T21:48:09.924Z,12.90
2022-09-11T21:55:12.580Z,8.60
2022-09-11T22:02:15.528Z,8.25
2022-09-11T22:09:20.932Z,6.55
2022-09-11T22:16:23.691Z,9.63
2022-09-11T22:23:25.931Z,5.10
2022-09-11T22:30:30.517Z,7.43
2022-09-11T22:37:32.495Z,7.68
2022-09-11T22:44:34.579Z,5.47
2022-09-11T22:51:37.018Z,12.10
2022-09-11T22:58:39.164Z,5.90
2022-09-11T23:06:00.611Z,6.05
2022-09-11T23:13:02.586Z,5.70
2022-09-11T23:20:05.084Z,4.65
2022-09-11T23:27:06.972Z,2.90
2022-09-11T23:34:09.457Z,3.17
2022-09-11T23:41:11.636Z,7.68
2022-09-11T23:48:13.680Z,3.88
2022-09-11T23:55:17.918Z,6.38
